sensor_id;sensor_type;location;lat;lon;timestamp;P1;durP1;ratioP1;P2;durP2;ratioP2
27199;SDS011;14714;48.106;11.546;2022-12-29T00:01:56;2.15;;;1.63;;
27199;SDS011;14714;48.106;11.546;2022-12-29T00:04:23;2.10;;;1.80;;
27199;SDS011;14714;48.106;11.546;2022-12-29T00:06:51;2.85;;;1.85;;
27199;SDS011;14714;48.106;11.546;2022-12-29T00:09:18;3.15;;;2.15;;
27199;SDS011;14714;48.106;11.546;2022-12-29T00:11:45;2.80;;;1.90;;
27199;SDS011;14714;48.106;11.546;2022-12-29T00:14:12;2.15;;;1.70;;
27199;SDS011;14714;48.106;11.546;2022-12-29T00:16:57;3.38;;;1.98;;
27199;SDS011;14714;48.106;11.546;2022-12-29T00:19:24;2.72;;;1.83;;
27199;SDS011;14714;48.106;11.546;2022-12-29T00:22:10;2.00;;;1.60;;
27199;SDS011;14714;48.106;11.546;2022-12-29T00:24:57;2.08;;;1.60;;
27199;SDS011;14714;48.106;11.546;2022-12-29T00:27:43;2.08;;;1.70;;
27199;SDS011;14714;48.106;11.546;2022-12-29T00:30:43;2.42;;;1.50;;
27199;SDS011;14714;48.106;11.546;2022-12-29T00:33:29;2.22;;;1.52;;
27199;SDS011;14714;48.106;11.546;2022-12-29T00:38:57;3.30;;;1.77;;
27199;SDS011;14714;48.106;11.546;2022-12-29T00:42:04;3.60;;;1.67;;
27199;SDS011;14714;48.106;11.546;2022-12-29T00:45:04;1.95;;;1.40;;
27199;SDS011;14714;48.106;11.546;2022-12-29T00:47:32;2.25;;;1.50;;
27199;SDS011;14714;48.106;11.546;2022-12-29T00:49:59;1.67;;;1.40;;
27199;SDS011;14714;48.106;11.546;2022-12-29T00:52:26;2.40;;;1.60;;
27199;SDS011;14714;48.106;11.546;2022-12-29T00:54:52;2.28;;;1.70;;
27199;SDS011;14714;48.106;11.546;2022-12-29T00:57:19;1.95;;;1.38;;
27199;SDS011;14714;48.106;11.546;2022-12-29T00:59:46;1.63;;;1.35;;
27199;SDS011;14714;48.106;11.546;2022-12-29T01:02:13;2.50;;;1.60;;
27199;SDS011;14714;48.106;11.546;2022-12-29T01:04:40;2.10;;;1.42;;
27199;SDS011;14714;48.106;11.546;2022-12-29T01:07:06;2.17;;;1.70;;
27199;SDS011;14714;48.106;11.546;2022-12-29T01:09:33;2.35;;;1.48;;
27199;SDS011;14714;48.106;11.546;2022-12-29T01:12:19;2.47;;;1.52;;
27199;SDS011;14714;48.106;11.546;2022-12-29T01:15:06;1.98;;;1.40;;
27199;SDS011;14714;48.106;11.546;2022-12-29T01:17:34;1.77;;;1.40;;
27199;SDS011;14714;48.106;11.546;2022-12-29T01:20:01;1.98;;;1.40;;
27199;SDS011;14714;48.106;11.546;2022-12-29T01:22:29;2.03;;;1.50;;
27199;SDS011;14714;48.106;11.546;2022-12-29T01:24:56;1.65;;;1.30;;
27199;SDS011;14714;48.106;11.546;2022-12-29T01:27:22;1.83;;;1.30;;
27199;SDS011;14714;48.106;11.546;2022-12-29T01:29:49;2.13;;;1.50;;
27199;SDS011;14714;48.106;11.546;2022-12-29T01:32:16;2.00;;;1.60;;
27199;SDS011;14714;48.106;11.546;2022-12-29T01:34:43;1.70;;;1.45;;
27199;SDS011;14714;48.106;11.546;2022-12-29T01:37:10;3.30;;;1.50;;
27199;SDS011;14714;48.106;11.546;2022-12-29T01:39:37;2.03;;;1.58;;
27199;SDS011;14714;48.106;11.546;2022-12-29T01:42:04;2.35;;;1.55;;
27199;SDS011;14714;48.106;11.546;2022-12-29T01:44:52;2.15;;;1.40;;
27199;SDS011;14714;48.106;11.546;2022-12-29T01:47:22;2.28;;;1.60;;
27199;SDS011;14714;48.106;11.546;2022-12-29T01:52:57;1.83;;;1.38;;
27199;SDS011;14714;48.106;11.546;2022-12-29T01:55:29;2.70;;;1.42;;
27199;SDS011;14714;48.106;11.546;2022-12-29T01:58:01;2.05;;;1.40;;
27199;SDS011;14714;48.106;11.546;2022-12-29T02:00:48;2.13;;;1.60;;
27199;SDS011;14714;48.106;11.546;2022-12-29T02:03:16;1.58;;;1.20;;
27199;SDS011;14714;48.106;11.546;2022-12-29T02:05:52;2.25;;;1.52;;
27199;SDS011;14714;48.106;11.546;2022-12-29T02:08:27;1.73;;;1.27;;
27199;SDS011;14714;48.106;11.546;2022-12-29T02:10:55;1.85;;;1.10;;
27199;SDS011;14714;48.106;11.546;2022-12-29T02:13:26;2.00;;;1.50;;
27199;SDS011;14714;48.106;11.546;2022-12-29T02:15:58;1.60;;;1.20;;
27199;SDS011;14714;48.106;11.546;2022-12-29T02:37:13;2.10;;;1.40;;
27199;SDS011;14714;48.106;11.546;2022-12-29T02:40:00;1.75;;;1.30;;
27199;SDS011;14714;48.106;11.546;2022-12-29T02:42:57;2.33;;;1.50;;
27199;SDS011;14714;48.106;11.546;2022-12-29T02:45:38;1.52;;;1.13;;
27199;SDS011;14714;48.106;11.546;2022-12-29T02:48:10;1.55;;;1.30;;
27199;SDS011;14714;48.106;11.546;2022-12-29T02:53:21;1.73;;;1.50;;
27199;SDS011;14714;48.106;11.546;2022-12-29T02:56:10;2.28;;;1.30;;
27199;SDS011;14714;48.106;11.546;2022-12-29T02:58:36;4.20;;;1.10;;
27199;SDS011;14714;48.106;11.546;2022-12-29T03:15:12;1.90;;;1.25;;
27199;SDS011;14714;48.106;11.546;2022-12-29T03:18:12;2.00;;;1.50;;
27199;SDS011;14714;48.106;11.546;2022-12-29T03:21:08;2.10;;;1.08;;
27199;SDS011;14714;48.106;11.546;2022-12-29T03:23:40;1.50;;;1.20;;
27199;SDS011;14714;48.106;11.546;2022-12-29T03:26:10;1.15;;;0.95;;
27199;SDS011;14714;48.106;11.546;2022-12-29T03:28:40;1.25;;;1.08;;
27199;SDS011;14714;48.106;11.546;2022-12-29T03:31:17;1.63;;;1.25;;
27199;SDS011;14714;48.106;11.546;2022-12-29T03:33:46;1.33;;;1.20;;
27199;SDS011;14714;48.106;11.546;2022-12-29T03:36:17;1.70;;;1.15;;
27199;SDS011;14714;48.106;11.546;2022-12-29T03:38:55;1.35;;;1.10;;
27199;SDS011;14714;48.106;11.546;2022-12-29T03:41:28;2.33;;;1.08;;
27199;SDS011;14714;48.106;11.546;2022-12-29T03:43:58;1.45;;;0.90;;
27199;SDS011;14714;48.106;11.546;2022-12-29T03:46:24;1.38;;;1.10;;
27199;SDS011;14714;48.106;11.546;2022-12-29T03:48:51;3.70;;;1.13;;
27199;SDS011;14714;48.106;11.546;2022-12-29T03:51:18;1.90;;;1.10;;
27199;SDS011;14714;48.106;11.546;2022-12-29T03:53:45;2.10;;;1.40;;
27199;SDS011;14714;48.106;11.546;2022-12-29T03:56:12;1.42;;;1.23;;
27199;SDS011;14714;48.106;11.546;2022-12-29T03:58:39;2.00;;;1.27;;
27199;SDS011;14714;48.106;11.546;2022-12-29T04:01:06;2.03;;;0.98;;
27199;SDS011;14714;48.106;11.546;2022-12-29T04:03:33;2.80;;;1.35;;
27199;SDS011;14714;48.106;11.546;2022-12-29T04:06:00;1.17;;;0.98;;
27199;SDS011;14714;48.106;11.546;2022-12-29T04:08:27;1.20;;;1.10;;
27199;SDS011;14714;48.106;11.546;2022-12-29T04:10:53;2.25;;;1.10;;
27199;SDS011;14714;48.106;11.546;2022-12-29T04:13:20;1.75;;;1.27;;
27199;SDS011;14714;48.106;11.546;2022-12-29T04:15:47;1.52;;;1.20;;
27199;SDS011;14714;48.106;11.546;2022-12-29T04:18:14;1.20;;;1.10;;
27199;SDS011;14714;48.106;11.546;2022-12-29T04:20:43;1.98;;;1.10;;
27199;SDS011;14714;48.106;11.546;2022-12-29T04:23:26;2.70;;;0.98;;
27199;SDS011;14714;48.106;11.546;2022-12-29T04:25:54;1.42;;;1.30;;
27199;SDS011;14714;48.106;11.546;2022-12-29T04:28:21;1.38;;;1.13;;
27199;SDS011;14714;48.106;11.546;2022-12-29T04:30:48;1.42;;;1.05;;
27199;SDS011;14714;48.106;11.546;2022-12-29T04:33:15;1.63;;;1.23;;
27199;SDS011;14714;48.106;11.546;2022-12-29T04:35:44;2.53;;;1.20;;
27199;SDS011;14714;48.106;11.546;2022-12-29T04:38:11;1.48;;;1.20;;
27199;SDS011;14714;48.106;11.546;2022-12-29T04:40:38;1.25;;;1.15;;
27199;SDS011;14714;48.106;11.546;2022-12-29T04:43:06;1.10;;;1.00;;
27199;SDS011;14714;48.106;11.546;2022-12-29T04:45:33;1.58;;;1.20;;
27199;SDS011;14714;48.106;11.546;2022-12-29T04:48:00;1.15;;;0.95;;
27199;SDS011;14714;48.106;11.546;2022-12-29T04:50:27;1.33;;;1.05;;
27199;SDS011;14714;48.106;11.546;2022-12-29T04:52:54;1.08;;;0.98;;
27199;SDS011;14714;48.106;11.546;2022-12-29T04:55:21;1.30;;;1.10;;
27199;SDS011;14714;48.106;11.546;2022-12-29T04:57:47;1.23;;;0.93;;
27199;SDS011;14714;48.106;11.546;2022-12-29T05:00:14;1.45;;;1.20;;
27199;SDS011;14714;48.106;11.546;2022-12-29T05:02:41;1.50;;;1.10;;
27199;SDS011;14714;48.106;11.546;2022-12-29T05:05:08;1.65;;;1.20;;
27199;SDS011;14714;48.106;11.546;2022-12-29T05:07:35;1.13;;;1.00;;
27199;SDS011;14714;48.106;11.546;2022-12-29T05:10:02;1.45;;;1.08;;
27199;SDS011;14714;48.106;11.546;2022-12-29T05:12:30;1.17;;;1.00;;
27199;SDS011;14714;48.106;11.546;2022-12-29T05:14:58;1.30;;;1.10;;
27199;SDS011;14714;48.106;11.546;2022-12-29T05:17:25;1.55;;;1.10;;
27199;SDS011;14714;48.106;11.546;2022-12-29T05:19:52;1.20;;;1.10;;
27199;SDS011;14714;48.106;11.546;2022-12-29T05:22:19;1.27;;;1.00;;
27199;SDS011;14714;48.106;11.546;2022-12-29T05:24:46;1.48;;;1.13;;
27199;SDS011;14714;48.106;11.546;2022-12-29T05:27:13;1.13;;;1.02;;
27199;SDS011;14714;48.106;11.546;2022-12-29T05:29:40;1.30;;;1.15;;
27199;SDS011;14714;48.106;11.546;2022-12-29T05:32:07;1.67;;;1.30;;
27199;SDS011;14714;48.106;11.546;2022-12-29T05:34:33;2.50;;;1.30;;
27199;SDS011;14714;48.106;11.546;2022-12-29T05:37:00;1.45;;;1.27;;
27199;SDS011;14714;48.106;11.546;2022-12-29T05:39:28;1.55;;;1.30;;
27199;SDS011;14714;48.106;11.546;2022-12-29T05:41:55;2.28;;;1.20;;
27199;SDS011;14714;48.106;11.546;2022-12-29T05:44:22;2.35;;;1.30;;
27199;SDS011;14714;48.106;11.546;2022-12-29T05:46:49;1.55;;;1.15;;
27199;SDS011;14714;48.106;11.546;2022-12-29T05:49:16;1.65;;;1.30;;
27199;SDS011;14714;48.106;11.546;2022-12-29T05:51:43;1.52;;;1.17;;
27199;SDS011;14714;48.106;11.546;2022-12-29T05:54:10;1.98;;;1.20;;
27199;SDS011;14714;48.106;11.546;2022-12-29T05:56:38;1.75;;;1.25;;
27199;SDS011;14714;48.106;11.546;2022-12-29T05:59:05;1.42;;;1.10;;
27199;SDS011;14714;48.106;11.546;2022-12-29T06:01:32;2.28;;;1.33;;
27199;SDS011;14714;48.106;11.546;2022-12-29T06:04:00;1.67;;;1.40;;
27199;SDS011;14714;48.106;11.546;2022-12-29T06:06:27;3.22;;;1.23;;
27199;SDS011;14714;48.106;11.546;2022-12-29T06:08:54;1.67;;;1.27;;
27199;SDS011;14714;48.106;11.546;2022-12-29T06:11:21;2.60;;;1.35;;
27199;SDS011;14714;48.106;11.546;2022-12-29T06:13:47;2.20;;;1.20;;
27199;SDS011;14714;48.106;11.546;2022-12-29T06:16:14;1.75;;;1.40;;
27199;SDS011;14714;48.106;11.546;2022-12-29T06:18:41;1.58;;;1.23;;
27199;SDS011;14714;48.106;11.546;2022-12-29T06:21:08;1.52;;;1.30;;
27199;SDS011;14714;48.106;11.546;2022-12-29T06:23:35;2.17;;;1.23;;
27199;SDS011;14714;48.106;11.546;2022-12-29T06:26:01;1.52;;;1.08;;
27199;SDS011;14714;48.106;11.546;2022-12-29T06:28:28;1.73;;;1.40;;
27199;SDS011;14714;48.106;11.546;2022-12-29T06:30:55;2.35;;;1.40;;
27199;SDS011;14714;48.106;11.546;2022-12-29T06:33:22;2.15;;;1.40;;
27199;SDS011;14714;48.106;11.546;2022-12-29T06:35:48;2.45;;;1.20;;
27199;SDS011;14714;48.106;11.546;2022-12-29T06:38:15;2.63;;;1.27;;
27199;SDS011;14714;48.106;11.546;2022-12-29T06:40:43;1.58;;;1.27;;
27199;SDS011;14714;48.106;11.546;2022-12-29T06:43:11;2.95;;;1.17;;
27199;SDS011;14714;48.106;11.546;2022-12-29T06:45:38;1.60;;;1.10;;
27199;SDS011;14714;48.106;11.546;2022-12-29T06:48:06;1.42;;;1.15;;
27199;SDS011;14714;48.106;11.546;2022-12-29T06:50:33;1.65;;;1.30;;
27199;SDS011;14714;48.106;11.546;2022-12-29T06:53:01;1.50;;;1.33;;
27199;SDS011;14714;48.106;11.546;2022-12-29T06:55:27;1.60;;;1.40;;
27199;SDS011;14714;48.106;11.546;2022-12-29T06:57:55;1.42;;;1.30;;
27199;SDS011;14714;48.106;11.546;2022-12-29T07:00:23;1.30;;;1.20;;
27199;SDS011;14714;48.106;11.546;2022-12-29T07:02:50;1.95;;;1.35;;
27199;SDS011;14714;48.106;11.546;2022-12-29T07:05:17;1.88;;;1.27;;
27199;SDS011;14714;48.106;11.546;2022-12-29T07:07:44;1.40;;;1.30;;
27199;SDS011;14714;48.106;11.546;2022-12-29T07:10:11;1.83;;;1.35;;
27199;SDS011;14714;48.106;11.546;2022-12-29T07:12:37;1.70;;;1.23;;
27199;SDS011;14714;48.106;11.546;2022-12-29T07:15:04;1.67;;;1.30;;
27199;SDS011;14714;48.106;11.546;2022-12-29T07:17:32;2.33;;;1.20;;
27199;SDS011;14714;48.106;11.546;2022-12-29T07:19:59;2.03;;;1.40;;
27199;SDS011;14714;48.106;11.546;2022-12-29T07:22:25;2.75;;;1.50;;
27199;SDS011;14714;48.106;11.546;2022-12-29T07:24:52;1.45;;;1.30;;
27199;SDS011;14714;48.106;11.546;2022-12-29T07:27:19;1.55;;;1.35;;
27199;SDS011;14714;48.106;11.546;2022-12-29T07:29:45;1.92;;;1.48;;
27199;SDS011;14714;48.106;11.546;2022-12-29T07:32:12;2.83;;;1.40;;
27199;SDS011;14714;48.106;11.546;2022-12-29T07:34:39;3.10;;;1.40;;
27199;SDS011;14714;48.106;11.546;2022-12-29T07:37:06;1.92;;;1.20;;
27199;SDS011;14714;48.106;11.546;2022-12-29T07:39:33;2.20;;;1.67;;
27199;SDS011;14714;48.106;11.546;2022-12-29T07:42:00;3.00;;;1.40;;
27199;SDS011;14714;48.106;11.546;2022-12-29T07:44:30;1.45;;;1.23;;
27199;SDS011;14714;48.106;11.546;2022-12-29T07:46:57;1.42;;;1.20;;
27199;SDS011;14714;48.106;11.546;2022-12-29T07:49:25;2.90;;;1.40;;
27199;SDS011;14714;48.106;11.546;2022-12-29T07:51:52;1.60;;;1.33;;
27199;SDS011;14714;48.106;11.546;2022-12-29T07:54:19;1.48;;;1.23;;
27199;SDS011;14714;48.106;11.546;2022-12-29T07:56:46;2.78;;;1.40;;
27199;SDS011;14714;48.106;11.546;2022-12-29T07:59:12;1.60;;;1.20;;
27199;SDS011;14714;48.106;11.546;2022-12-29T08:01:39;1.70;;;1.33;;
27199;SDS011;14714;48.106;11.546;2022-12-29T08:04:06;2.25;;;1.40;;
27199;SDS011;14714;48.106;11.546;2022-12-29T08:06:33;3.10;;;1.58;;
27199;SDS011;14714;48.106;11.546;2022-12-29T08:09:00;4.13;;;1.40;;
27199;SDS011;14714;48.106;11.546;2022-12-29T08:11:37;2.72;;;1.38;;
27199;SDS011;14714;48.106;11.546;2022-12-29T08:14:04;1.85;;;1.48;;
27199;SDS011;14714;48.106;11.546;2022-12-29T08:16:31;2.85;;;1.42;;
27199;SDS011;14714;48.106;11.546;2022-12-29T08:18:58;2.47;;;1.60;;
27199;SDS011;14714;48.106;11.546;2022-12-29T08:21:28;2.95;;;1.55;;
27199;SDS011;14714;48.106;11.546;2022-12-29T08:23:55;2.40;;;1.70;;
27199;SDS011;14714;48.106;11.546;2022-12-29T08:26:22;1.67;;;1.45;;
27199;SDS011;14714;48.106;11.546;2022-12-29T08:28:51;1.60;;;1.40;;
27199;SDS011;14714;48.106;11.546;2022-12-29T08:31:19;2.17;;;1.50;;
27199;SDS011;14714;48.106;11.546;2022-12-29T08:33:46;1.88;;;1.48;;
27199;SDS011;14714;48.106;11.546;2022-12-29T08:36:12;1.48;;;1.30;;
27199;SDS011;14714;48.106;11.546;2022-12-29T08:38:39;2.05;;;1.50;;
27199;SDS011;14714;48.106;11.546;2022-12-29T08:41:06;1.70;;;1.50;;
27199;SDS011;14714;48.106;11.546;2022-12-29T08:43:33;1.75;;;1.38;;
27199;SDS011;14714;48.106;11.546;2022-12-29T08:46:00;2.33;;;1.40;;
27199;SDS011;14714;48.106;11.546;2022-12-29T08:48:27;2.00;;;1.45;;
27199;SDS011;14714;48.106;11.546;2022-12-29T08:50:54;2.28;;;1.50;;
27199;SDS011;14714;48.106;11.546;2022-12-29T08:53:21;2.35;;;1.30;;
27199;SDS011;14714;48.106;11.546;2022-12-29T08:55:54;3.22;;;1.50;;
27199;SDS011;14714;48.106;11.546;2022-12-29T08:58:30;1.77;;;1.52;;
27199;SDS011;14714;48.106;11.546;2022-12-29T09:00:57;2.25;;;1.30;;
27199;SDS011;14714;48.106;11.546;2022-12-29T09:03:24;2.72;;;1.63;;
27199;SDS011;14714;48.106;11.546;2022-12-29T09:06:12;1.90;;;1.50;;
27199;SDS011;14714;48.106;11.546;2022-12-29T09:08:39;1.67;;;1.33;;
27199;SDS011;14714;48.106;11.546;2022-12-29T09:11:07;2.83;;;1.67;;
27199;SDS011;14714;48.106;11.546;2022-12-29T09:13:41;2.05;;;1.58;;
27199;SDS011;14714;48.106;11.546;2022-12-29T09:16:08;2.25;;;1.35;;
27199;SDS011;14714;48.106;11.546;2022-12-29T09:18:36;1.95;;;1.58;;
27199;SDS011;14714;48.106;11.546;2022-12-29T09:21:04;2.83;;;1.60;;
27199;SDS011;14714;48.106;11.546;2022-12-29T09:23:32;3.40;;;1.45;;
27199;SDS011;14714;48.106;11.546;2022-12-29T09:26:00;2.55;;;1.60;;
27199;SDS011;14714;48.106;11.546;2022-12-29T09:28:28;2.55;;;1.70;;
27199;SDS011;14714;48.106;11.546;2022-12-29T09:30:55;2.33;;;1.67;;
27199;SDS011;14714;48.106;11.546;2022-12-29T09:33:23;5.50;;;1.50;;
27199;SDS011;14714;48.106;11.546;2022-12-29T09:35:54;2.83;;;1.52;;
27199;SDS011;14714;48.106;11.546;2022-12-29T09:38:23;5.05;;;1.70;;
27199;SDS011;14714;48.106;11.546;2022-12-29T09:40:52;1.65;;;1.40;;
27199;SDS011;14714;48.106;11.546;2022-12-29T09:46:42;3.70;;;1.55;;
27199;SDS011;14714;48.106;11.546;2022-12-29T09:52:09;2.03;;;1.38;;
27199;SDS011;14714;48.106;11.546;2022-12-29T09:55:03;2.60;;;1.48;;
27199;SDS011;14714;48.106;11.546;2022-12-29T09:57:38;2.67;;;1.77;;
27199;SDS011;14714;48.106;11.546;2022-12-29T10:00:21;1.90;;;1.40;;
27199;SDS011;14714;48.106;11.546;2022-12-29T10:05:35;1.50;;;1.40;;
27199;SDS011;14714;48.106;11.546;2022-12-29T10:10:55;3.42;;;1.50;;
27199;SDS011;14714;48.106;11.546;2022-12-29T10:13:33;2.90;;;1.65;;
27199;SDS011;14714;48.106;11.546;2022-12-29T10:16:14;2.08;;;1.60;;
27199;SDS011;14714;48.106;11.546;2022-12-29T10:21:53;3.50;;;1.40;;
27199;SDS011;14714;48.106;11.546;2022-12-29T10:24:27;2.70;;;1.60;;
27199;SDS011;14714;48.106;11.546;2022-12-29T10:26:57;3.22;;;1.67;;
27199;SDS011;14714;48.106;11.546;2022-12-29T10:29:27;2.10;;;1.60;;
27199;SDS011;14714;48.106;11.546;2022-12-29T10:32:04;2.47;;;1.50;;
27199;SDS011;14714;48.106;11.546;2022-12-29T10:34:41;1.63;;;1.52;;
27199;SDS011;14714;48.106;11.546;2022-12-29T10:40:16;2.42;;;1.50;;
27199;SDS011;14714;48.106;11.546;2022-12-29T10:45:57;2.70;;;2.03;;
27199;SDS011;14714;48.106;11.546;2022-12-29T10:48:31;2.67;;;1.65;;
27199;SDS011;14714;48.106;11.546;2022-12-29T10:51:00;2.08;;;1.60;;
27199;SDS011;14714;48.106;11.546;2022-12-29T10:53:43;2.25;;;1.85;;
27199;SDS011;14714;48.106;11.546;2022-12-29T10:56:34;2.40;;;1.70;;
27199;SDS011;14714;48.106;11.546;2022-12-29T10:59:10;2.88;;;1.85;;
27199;SDS011;14714;48.106;11.546;2022-12-29T11:01:47;2.35;;;2.10;;
27199;SDS011;14714;48.106;11.546;2022-12-29T11:07:39;2.60;;;1.75;;
27199;SDS011;14714;48.106;11.546;2022-12-29T11:10:16;2.95;;;1.55;;
27199;SDS011;14714;48.106;11.546;2022-12-29T11:12:57;2.93;;;1.50;;
27199;SDS011;14714;48.106;11.546;2022-12-29T11:15:25;4.32;;;1.73;;
27199;SDS011;14714;48.106;11.546;2022-12-29T11:18:01;1.83;;;1.70;;
27199;SDS011;14714;48.106;11.546;2022-12-29T11:20:35;1.65;;;1.50;;
27199;SDS011;14714;48.106;11.546;2022-12-29T11:23:05;3.35;;;1.73;;
27199;SDS011;14714;48.106;11.546;2022-12-29T11:28:43;1.75;;;1.50;;
27199;SDS011;14714;48.106;11.546;2022-12-29T11:31:15;2.53;;;1.60;;
27199;SDS011;14714;48.106;11.546;2022-12-29T11:33:43;2.25;;;1.52;;
27199;SDS011;14714;48.106;11.546;2022-12-29T11:36:12;1.85;;;1.55;;
27199;SDS011;14714;48.106;11.546;2022-12-29T11:38:45;1.55;;;1.45;;
27199;SDS011;14714;48.106;11.546;2022-12-29T11:41:26;2.00;;;1.40;;
27199;SDS011;14714;48.106;11.546;2022-12-29T11:43:56;2.47;;;1.77;;
27199;SDS011;14714;48.106;11.546;2022-12-29T11:46:26;1.95;;;1.40;;
27199;SDS011;14714;48.106;11.546;2022-12-29T11:48:56;2.13;;;1.60;;
27199;SDS011;14714;48.106;11.546;2022-12-29T11:51:44;1.63;;;1.52;;
27199;SDS011;14714;48.106;11.546;2022-12-29T11:54:18;2.38;;;1.50;;
27199;SDS011;14714;48.106;11.546;2022-12-29T11:56:49;3.05;;;1.60;;
27199;SDS011;14714;48.106;11.546;2022-12-29T11:59:23;3.08;;;1.45;;
27199;SDS011;14714;48.106;11.546;2022-12-29T12:01:54;2.65;;;1.45;;
27199;SDS011;14714;48.106;11.546;2022-12-29T12:04:23;1.88;;;1.30;;
27199;SDS011;14714;48.106;11.546;2022-12-29T12:06:59;2.30;;;1.60;;
27199;SDS011;14714;48.106;11.546;2022-12-29T12:09:31;2.08;;;1.50;;
27199;SDS011;14714;48.106;11.546;2022-12-29T12:12:32;2.45;;;1.55;;
27199;SDS011;14714;48.106;11.546;2022-12-29T12:15:08;1.63;;;1.27;;
27199;SDS011;14714;48.106;11.546;2022-12-29T12:17:51;2.33;;;1.40;;
27199;SDS011;14714;48.106;11.546;2022-12-29T12:23:35;1.92;;;1.50;;
27199;SDS011;14714;48.106;11.546;2022-12-29T12:33:57;2.83;;;1.40;;
27199;SDS011;14714;48.106;11.546;2022-12-29T12:36:41;3.42;;;1.30;;
27199;SDS011;14714;48.106;11.546;2022-12-29T12:44:41;1.70;;;1.40;;
27199;SDS011;14714;48.106;11.546;2022-12-29T12:52:49;1.92;;;1.23;;
27199;SDS011;14714;48.106;11.546;2022-12-29T13:01:03;2.20;;;1.40;;
27199;SDS011;14714;48.106;11.546;2022-12-29T13:17:09;1.60;;;1.10;;
27199;SDS011;14714;48.106;11.546;2022-12-29T13:20:06;2.50;;;1.30;;
27199;SDS011;14714;48.106;11.546;2022-12-29T13:22:53;1.38;;;1.20;;
27199;SDS011;14714;48.106;11.546;2022-12-29T13:28:26;3.10;;;1.38;;
27199;SDS011;14714;48.106;11.546;2022-12-29T13:36:33;2.15;;;1.40;;
27199;SDS011;14714;48.106;11.546;2022-12-29T13:39:13;4.50;;;1.70;;
27199;SDS011;14714;48.106;11.546;2022-12-29T13:41:56;5.28;;;2.40;;
27199;SDS011;14714;48.106;11.546;2022-12-29T13:49:47;5.78;;;2.22;;
27199;SDS011;14714;48.106;11.546;2022-12-29T13:55:40;6.20;;;2.53;;
27199;SDS011;14714;48.106;11.546;2022-12-29T13:58:00;3.25;;;2.15;;
27199;SDS011;14714;48.106;11.546;2022-12-29T14:03:46;2.83;;;1.95;;
27199;SDS011;14714;48.106;11.546;2022-12-29T14:06:20;7.10;;;2.20;;
27199;SDS011;14714;48.106;11.546;2022-12-29T14:08:52;3.95;;;2.13;;
27199;SDS011;14714;48.106;11.546;2022-12-29T14:11:32;3.50;;;1.95;;
27199;SDS011;14714;48.106;11.546;2022-12-29T14:17:10;5.50;;;2.50;;
27199;SDS011;14714;48.106;11.546;2022-12-29T14:19:41;5.97;;;2.80;;
27199;SDS011;14714;48.106;11.546;2022-12-29T14:22:10;5.45;;;2.22;;
27199;SDS011;14714;48.106;11.546;2022-12-29T14:24:39;3.85;;;2.20;;
27199;SDS011;14714;48.106;11.546;2022-12-29T14:33:00;3.28;;;1.80;;
27199;SDS011;14714;48.106;11.546;2022-12-29T14:35:00;2.58;;;1.95;;
27199;SDS011;14714;48.106;11.546;2022-12-29T14:38:17;3.63;;;1.88;;
27199;SDS011;14714;48.106;11.546;2022-12-29T14:40:47;1.98;;;1.70;;
27199;SDS011;14714;48.106;11.546;2022-12-29T14:43:20;2.92;;;1.90;;
27199;SDS011;14714;48.106;11.546;2022-12-29T14:45:57;3.90;;;1.80;;
27199;SDS011;14714;48.106;11.546;2022-12-29T14:51:02;3.47;;;1.90;;
27199;SDS011;14714;48.106;11.546;2022-12-29T14:56:12;3.65;;;2.45;;
27199;SDS011;14714;48.106;11.546;2022-12-29T14:58:53;6.25;;;2.50;;
27199;SDS011;14714;48.106;11.546;2022-12-29T15:01:39;7.30;;;2.63;;
27199;SDS011;14714;48.106;11.546;2022-12-29T15:04:15;4.40;;;2.50;;
27199;SDS011;14714;48.106;11.546;2022-12-29T15:06:45;7.85;;;2.40;;
27199;SDS011;14714;48.106;11.546;2022-12-29T15:12:23;3.53;;;2.08;;
27199;SDS011;14714;48.106;11.546;2022-12-29T15:15:27;5.75;;;2.40;;
27199;SDS011;14714;48.106;11.546;2022-12-29T15:17:57;3.20;;;2.10;;
27199;SDS011;14714;48.106;11.546;2022-12-29T15:20:37;3.22;;;2.20;;
27199;SDS011;14714;48.106;11.546;2022-12-29T15:23:11;4.97;;;2.13;;
27199;SDS011;14714;48.106;11.546;2022-12-29T15:26:14;2.95;;;2.08;;
27199;SDS011;14714;48.106;11.546;2022-12-29T15:28:42;4.35;;;2.20;;
27199;SDS011;14714;48.106;11.546;2022-12-29T15:31:14;4.95;;;2.10;;
27199;SDS011;14714;48.106;11.546;2022-12-29T15:33:44;3.25;;;2.00;;
27199;SDS011;14714;48.106;11.546;2022-12-29T15:38:47;3.55;;;2.47;;
27199;SDS011;14714;48.106;11.546;2022-12-29T15:43:53;4.85;;;2.50;;
27199;SDS011;14714;48.106;11.546;2022-12-29T15:46:25;4.55;;;2.35;;
27199;SDS011;14714;48.106;11.546;2022-12-29T15:48:53;5.75;;;2.55;;
27199;SDS011;14714;48.106;11.546;2022-12-29T15:51:22;3.30;;;2.20;;
27199;SDS011;14714;48.106;11.546;2022-12-29T15:53:55;3.78;;;2.50;;
27199;SDS011;14714;48.106;11.546;2022-12-29T15:56:23;6.03;;;3.30;;
27199;SDS011;14714;48.106;11.546;2022-12-29T15:58:51;6.47;;;3.28;;
27199;SDS011;14714;48.106;11.546;2022-12-29T16:03:52;6.50;;;3.72;;
27199;SDS011;14714;48.106;11.546;2022-12-29T16:09:05;5.32;;;3.55;;
27199;SDS011;14714;48.106;11.546;2022-12-29T16:11:40;5.88;;;3.67;;
27199;SDS011;14714;48.106;11.546;2022-12-29T16:14:16;6.00;;;3.20;;
27199;SDS011;14714;48.106;11.546;2022-12-29T16:16:47;4.13;;;2.55;;
27199;SDS011;14714;48.106;11.546;2022-12-29T16:19:21;4.85;;;3.22;;
27199;SDS011;14714;48.106;11.546;2022-12-29T16:21:53;4.50;;;3.20;;
27199;SDS011;14714;48.106;11.546;2022-12-29T16:24:21;5.45;;;2.72;;
27199;SDS011;14714;48.106;11.546;2022-12-29T16:27:07;5.63;;;2.60;;
27199;SDS011;14714;48.106;11.546;2022-12-29T16:29:41;4.57;;;2.58;;
27199;SDS011;14714;48.106;11.546;2022-12-29T16:32:24;4.15;;;2.50;;
27199;SDS011;14714;48.106;11.546;2022-12-29T16:37:42;6.07;;;2.70;;
27199;SDS011;14714;48.106;11.546;2022-12-29T16:42:56;5.05;;;2.10;;
27199;SDS011;14714;48.106;11.546;2022-12-29T16:50:39;4.70;;;2.45;;
27199;SDS011;14714;48.106;11.546;2022-12-29T16:53:47;3.83;;;2.55;;
27199;SDS011;14714;48.106;11.546;2022-12-29T16:56:19;2.65;;;1.75;;
27199;SDS011;14714;48.106;11.546;2022-12-29T16:58:50;3.22;;;1.85;;
27199;SDS011;14714;48.106;11.546;2022-12-29T17:01:22;5.00;;;2.30;;
27199;SDS011;14714;48.106;11.546;2022-12-29T17:03:51;3.88;;;2.30;;
27199;SDS011;14714;48.106;11.546;2022-12-29T17:06:23;3.50;;;2.22;;
27199;SDS011;14714;48.106;11.546;2022-12-29T17:08:50;3.05;;;2.20;;
27199;SDS011;14714;48.106;11.546;2022-12-29T17:11:19;4.18;;;2.10;;
27199;SDS011;14714;48.106;11.546;2022-12-29T17:17:04;3.63;;;2.13;;
27199;SDS011;14714;48.106;11.546;2022-12-29T17:19:52;2.75;;;1.85;;
27199;SDS011;14714;48.106;11.546;2022-12-29T17:22:23;9.63;;;2.45;;
27199;SDS011;14714;48.106;11.546;2022-12-29T17:24:54;4.55;;;2.25;;
27199;SDS011;14714;48.106;11.546;2022-12-29T17:27:40;6.22;;;2.20;;
27199;SDS011;14714;48.106;11.546;2022-12-29T17:32:45;5.65;;;2.22;;
27199;SDS011;14714;48.106;11.546;2022-12-29T17:35:20;6.05;;;2.10;;
27199;SDS011;14714;48.106;11.546;2022-12-29T17:37:48;3.08;;;2.13;;
27199;SDS011;14714;48.106;11.546;2022-12-29T17:40:23;2.80;;;2.13;;
27199;SDS011;14714;48.106;11.546;2022-12-29T17:42:53;7.20;;;3.45;;
27199;SDS011;14714;48.106;11.546;2022-12-29T17:45:22;7.28;;;3.83;;
27199;SDS011;14714;48.106;11.546;2022-12-29T17:47:51;5.82;;;3.50;;
27199;SDS011;14714;48.106;11.546;2022-12-29T17:50:18;5.93;;;3.70;;
27199;SDS011;14714;48.106;11.546;2022-12-29T17:52:49;7.15;;;4.35;;
27199;SDS011;14714;48.106;11.546;2022-12-29T17:55:30;6.40;;;3.22;;